sensor_id;sensor_type;location;lat;lon;timestamp;pressure;altitude;pressure_sealevel;temperature;humidity
60089;BME280;45961;53.574;55.878;2023-04-21T00:00:15;100146.25;;;4.22;51.59
60089;BME280;45961;53.574;55.878;2023-04-21T00:01:16;100154.78;;;4.21;51.68
60089;BME280;45961;53.574;55.878;2023-04-21T00:02:17;100148.75;;;4.19;51.86
60089;BME280;45961;53.574;55.878;2023-04-21T00:03:18;100148.75;;;4.19;52.04
60089;BME280;45961;53.574;55.878;2023-04-21T00:04:21;100145.97;;;4.13;52.29
60089;BME280;45961;53.574;55.878;2023-04-21T00:05:23;100141.56;;;4.09;52.45
60089;BME280;45961;53.574;55.878;2023-04-21T00:06:24;100143.22;;;4.07;52.47
60089;BME280;45961;53.574;55.878;2023-04-21T00:07:26;100141.41;;;4.04;52.66
60089;BME280;45961;53.574;55.878;2023-04-21T00:08:27;100142.22;;;4.03;52.48
60089;BME280;45961;53.574;55.878;2023-04-21T00:09:28;100144.06;;;4.07;52.46
60089;BME280;45961;53.574;55.878;2023-04-21T00:10:29;100142.34;;;4.06;52.44
60089;BME280;45961;53.574;55.878;2023-04-21T00:11:30;100142.16;;;4.02;52.58
60089;BME280;45961;53.574;55.878;2023-04-21T00:12:31;100133.41;;;3.95;52.53
60089;BME280;45961;53.574;55.878;2023-04-21T00:13:33;100139.59;;;4.02;52.77
60089;BME280;45961;53.574;55.878;2023-04-21T00:14:34;100143.81;;;4.00;52.94
60089;BME280;45961;53.574;55.878;2023-04-21T00:15:35;100143.06;;;4.02;52.74
60089;BME280;45961;53.574;55.878;2023-04-21T00:16:36;100137.75;;;3.97;53.15
60089;BME280;45961;53.574;55.878;2023-04-21T00:17:37;100140.41;;;4.01;52.75
60089;BME280;45961;53.574;55.878;2023-04-21T00:18:38;100140.41;;;4.01;52.95
60089;BME280;45961;53.574;55.878;2023-04-21T00:19:39;100141.03;;;3.93;53.20
60089;BME280;45961;53.574;55.878;2023-04-21T00:20:40;100141.84;;;3.92;53.05
60089;BME280;45961;53.574;55.878;2023-04-21T00:21:43;100141.03;;;3.93;53.17
60089;BME280;45961;53.574;55.878;2023-04-21T00:22:44;100142.78;;;3.94;52.98
60089;BME280;45961;53.574;55.878;2023-04-21T00:23:45;100141.03;;;3.93;52.91
60089;BME280;45961;53.574;55.878;2023-04-21T00:24:47;100132.38;;;3.90;52.84
60089;BME280;45961;53.574;55.878;2023-04-21T00:25:48;100136.69;;;3.91;52.81
60089;BME280;45961;53.574;55.878;2023-04-21T00:26:49;100138.38;;;3.90;52.96
60089;BME280;45961;53.574;55.878;2023-04-21T00:27:50;100135.88;;;3.92;52.90
60089;BME280;45961;53.574;55.878;2023-04-21T00:28:51;100133.25;;;3.90;52.91
60089;BME280;45961;53.574;55.878;2023-04-21T00:29:52;100142.72;;;3.93;52.79
60089;BME280;45961;53.574;55.878;2023-04-21T00:30:53;100140.53;;;4.04;52.57
60089;BME280;45961;53.574;55.878;2023-04-21T00:31:54;100135.19;;;3.97;52.98
60089;BME280;45961;53.574;55.878;2023-04-21T00:32:55;100132.59;;;3.96;53.24
60089;BME280;45961;53.574;55.878;2023-04-21T00:33:56;100138.81;;;4.03;53.01
60089;BME280;45961;53.574;55.878;2023-04-21T00:34:57;100137.03;;;4.02;53.18
60089;BME280;45961;53.574;55.878;2023-04-21T00:35:58;100137.03;;;4.02;52.95
60089;BME280;45961;53.574;55.878;2023-04-21T00:37:01;100134.69;;;4.08;52.58
60089;BME280;45961;53.574;55.878;2023-04-21T00:38:03;100134.66;;;4.06;52.77
60089;BME280;45961;53.574;55.878;2023-04-21T00:39:03;100131.25;;;4.07;53.06
60089;BME280;45961;53.574;55.878;2023-04-21T00:40:05;100131.19;;;4.06;52.97
60089;BME280;45961;53.574;55.878;2023-04-21T00:41:06;100132.03;;;4.05;52.84
60089;BME280;45961;53.574;55.878;2023-04-21T00:42:07;100129.56;;;4.08;52.55
60089;BME280;45961;53.574;55.878;2023-04-21T00:43:09;100133.00;;;4.08;52.74
60089;BME280;45961;53.574;55.878;2023-04-21T00:44:10;100127.91;;;4.10;52.84
60089;BME280;45961;53.574;55.878;2023-04-21T00:45:11;100132.25;;;4.11;52.92
60089;BME280;45961;53.574;55.878;2023-04-21T00:46:14;100140.69;;;4.08;53.09
60089;BME280;45961;53.574;55.878;2023-04-21T00:47:15;100128.84;;;4.12;52.80
60089;BME280;45961;53.574;55.878;2023-04-21T00:48:16;100139.97;;;4.12;52.87
60089;BME280;45961;53.574;55.878;2023-04-21T00:49:17;100134.00;;;4.13;52.70
60089;BME280;45961;53.574;55.878;2023-04-21T00:50:18;100131.53;;;4.15;52.65
60089;BME280;45961;53.574;55.878;2023-04-21T00:51:19;100133.16;;;4.13;52.58
60089;BME280;45961;53.574;55.878;2023-04-21T00:52:20;100137.38;;;4.11;52.84
60089;BME280;45961;53.574;55.878;2023-04-21T00:53:22;100135.84;;;4.17;52.09
60089;BME280;45961;53.574;55.878;2023-04-21T00:54:23;100138.41;;;4.17;52.27
60089;BME280;45961;53.574;55.878;2023-04-21T00:55:24;100132.66;;;4.23;51.93
60089;BME280;45961;53.574;55.878;2023-04-21T00:56:27;100122.28;;;4.20;51.70
60089;BME280;45961;53.574;55.878;2023-04-21T00:57:30;100104.97;;;4.13;51.75
60089;BME280;45961;53.574;55.878;2023-04-21T00:58:31;100137.25;;;4.33;52.02
60089;BME280;45961;53.574;55.878;2023-04-21T00:59:33;100138.75;;;4.27;52.26
60089;BME280;45961;53.574;55.878;2023-04-21T01:00:34;100133.50;;;4.24;52.00
60089;BME280;45961;53.574;55.878;2023-04-21T01:01:38;100122.41;;;4.23;52.24
60089;BME280;45961;53.574;55.878;2023-04-21T01:02:39;100131.97;;;4.29;51.67
60089;BME280;45961;53.574;55.878;2023-04-21T01:03:40;100132.13;;;4.33;51.51
60089;BME280;45961;53.574;55.878;2023-04-21T01:04:43;100132.78;;;4.28;51.88
60089;BME280;45961;53.574;55.878;2023-04-21T01:05:45;100128.50;;;4.27;51.96
60089;BME280;45961;53.574;55.878;2023-04-21T01:06:46;100130.13;;;4.25;51.98
60089;BME280;45961;53.574;55.878;2023-04-21T01:07:48;100129.22;;;4.23;52.38
60089;BME280;45961;53.574;55.878;2023-04-21T01:08:51;100129.25;;;4.24;52.34
60089;BME280;45961;53.574;55.878;2023-04-21T01:09:52;100127.63;;;4.26;52.45
60089;BME280;45961;53.574;55.878;2023-04-21T01:10:53;100130.22;;;4.28;52.63
60089;BME280;45961;53.574;55.878;2023-04-21T01:12:02;100123.38;;;4.27;52.65
60089;BME280;45961;53.574;55.878;2023-04-21T01:13:03;100122.53;;;4.28;52.55
60089;BME280;45961;53.574;55.878;2023-04-21T01:14:05;100127.72;;;4.29;52.73
60089;BME280;45961;53.574;55.878;2023-04-21T01:15:06;100129.25;;;4.24;52.86
60089;BME280;45961;53.574;55.878;2023-04-21T01:16:08;100130.09;;;4.23;52.83
60089;BME280;45961;53.574;55.878;2023-04-21T01:17:09;100127.53;;;4.23;52.74
60089;BME280;45961;53.574;55.878;2023-04-21T01:18:10;100131.81;;;4.24;52.80
60089;BME280;45961;53.574;55.878;2023-04-21T01:19:11;100131.81;;;4.24;52.49
60089;BME280;45961;53.574;55.878;2023-04-21T01:20:15;100117.06;;;4.17;52.94
60089;BME280;45961;53.574;55.878;2023-04-21T01:21:16;100132.03;;;4.30;52.46
60089;BME280;45961;53.574;55.878;2023-04-21T01:22:19;100136.44;;;4.34;52.22
60089;BME280;45961;53.574;55.878;2023-04-21T01:23:20;100132.31;;;4.39;52.02
60089;BME280;45961;53.574;55.878;2023-04-21T01:24:21;100129.81;;;4.41;51.59
60089;BME280;45961;53.574;55.878;2023-04-21T01:25:22;100131.50;;;4.40;51.75
60089;BME280;45961;53.574;55.878;2023-04-21T01:26:27;100128.81;;;4.37;51.94
60089;BME280;45961;53.574;55.878;2023-04-21T01:27:28;100129.81;;;4.41;51.90
60089;BME280;45961;53.574;55.878;2023-04-21T01:28:29;100124.63;;;4.39;51.74
60089;BME280;45961;53.574;55.878;2023-04-21T01:29:33;100131.31;;;4.34;52.16
60089;BME280;45961;53.574;55.878;2023-04-21T01:30:34;100127.38;;;4.45;51.47
60089;BME280;45961;53.574;55.878;2023-04-21T01:31:35;100128.31;;;4.48;51.77
60089;BME280;45961;53.574;55.878;2023-04-21T01:32:36;100125.03;;;4.52;51.67
60089;BME280;45961;53.574;55.878;2023-04-21T01:33:37;100125.16;;;4.56;51.40
60089;BME280;45961;53.574;55.878;2023-04-21T01:34:39;100125.69;;;4.46;51.67
60089;BME280;45961;53.574;55.878;2023-04-21T01:35:41;100129.19;;;4.48;52.10
60089;BME280;45961;53.574;55.878;2023-04-21T01:36:43;100128.50;;;4.54;51.79
60089;BME280;45961;53.574;55.878;2023-04-21T01:37:44;100122.72;;;4.59;51.54
60089;BME280;45961;53.574;55.878;2023-04-21T01:38:45;100122.84;;;4.64;51.24
60089;BME280;45961;53.574;55.878;2023-04-21T01:39:50;100129.81;;;4.68;51.30
60089;BME280;45961;53.574;55.878;2023-04-21T01:40:54;100136.50;;;4.63;51.70
60089;BME280;45961;53.574;55.878;2023-04-21T01:41:55;100139.81;;;4.60;52.06
60089;BME280;45961;53.574;55.878;2023-04-21T01:42:57;100132.91;;;4.58;52.04
60089;BME280;45961;53.574;55.878;2023-04-21T01:43:58;100121.13;;;4.63;51.66
60089;BME280;45961;53.574;55.878;2023-04-21T01:45:01;100136.75;;;4.70;51.59
60089;BME280;45961;53.574;55.878;2023-04-21T01:46:05;100143.47;;;4.67;52.06
60089;BME280;45961;53.574;55.878;2023-04-21T01:47:06;100144.25;;;4.66;52.40
60089;BME280;45961;53.574;55.878;2023-04-21T01:48:07;100137.41;;;4.65;52.42
60089;BME280;45961;53.574;55.878;2023-04-21T01:49:08;100134.94;;;4.68;52.42
60089;BME280;45961;53.574;55.878;2023-04-21T01:50:09;100133.44;;;4.75;52.18
60089;BME280;45961;53.574;55.878;2023-04-21T01:51:11;100133.59;;;4.79;52.02
60089;BME280;45961;53.574;55.878;2023-04-21T01:52:12;100132.94;;;4.86;51.60
60089;BME280;45961;53.574;55.878;2023-04-21T01:53:13;100138.25;;;4.92;51.49
60089;BME280;45961;53.574;55.878;2023-04-21T01:54:15;100137.66;;;5.01;51.48
60089;BME280;45961;53.574;55.878;2023-04-21T01:55:16;100137.84;;;5.07;51.32
60089;BME280;45961;53.574;55.878;2023-04-21T01:56:17;100135.28;;;5.07;51.56
60089;BME280;45961;53.574;55.878;2023-04-21T01:57:19;100128.47;;;5.08;51.51
60089;BME280;45961;53.574;55.878;2023-04-21T01:58:20;100129.31;;;5.08;51.63
60089;BME280;45961;53.574;55.878;2023-04-21T01:59:21;100144.00;;;5.12;51.41
60089;BME280;45961;53.574;55.878;2023-04-21T02:00:22;100127.00;;;5.16;51.12
60089;BME280;45961;53.574;55.878;2023-04-21T02:01:23;100131.13;;;5.11;51.34
60089;BME280;45961;53.574;55.878;2023-04-21T02:02:24;100126.94;;;5.14;51.39
60089;BME280;45961;53.574;55.878;2023-04-21T02:03:25;100132.03;;;5.13;51.75
60089;BME280;45961;53.574;55.878;2023-04-21T02:04:26;100128.81;;;5.20;51.44
60089;BME280;45961;53.574;55.878;2023-04-21T02:05:27;100126.91;;;5.13;51.95
60089;BME280;45961;53.574;55.878;2023-04-21T02:06:29;100136.31;;;5.14;51.74
60089;BME280;45961;53.574;55.878;2023-04-21T02:07:33;100131.19;;;5.14;52.15
60089;BME280;45961;53.574;55.878;2023-04-21T02:08:34;100129.50;;;5.14;52.34
60089;BME280;45961;53.574;55.878;2023-04-21T02:09:35;100125.31;;;5.18;52.10
60089;BME280;45961;53.574;55.878;2023-04-21T02:10:36;100135.66;;;5.19;52.09
60089;BME280;45961;53.574;55.878;2023-04-21T02:11:37;100127.38;;;5.30;51.89
60089;BME280;45961;53.574;55.878;2023-04-21T02:12:38;100133.59;;;5.38;51.48
60089;BME280;45961;53.574;55.878;2023-04-21T02:13:39;100127.84;;;5.47;51.23
60089;BME280;45961;53.574;55.878;2023-04-21T02:14:40;100131.25;;;5.45;51.39
60089;BME280;45961;53.574;55.878;2023-04-21T02:15:41;100132.19;;;5.48;51.17
60089;BME280;45961;53.574;55.878;2023-04-21T02:16:42;100128.06;;;5.54;50.92
60089;BME280;45961;53.574;55.878;2023-04-21T02:17:43;100123.84;;;5.56;50.94
60089;BME280;45961;53.574;55.878;2023-04-21T02:18:44;100127.19;;;5.54;51.05
60089;BME280;45961;53.574;55.878;2023-04-21T02:19:45;100117.88;;;5.57;50.74
60089;BME280;45961;53.574;55.878;2023-04-21T02:20:48;100126.78;;;5.70;50.49
60089;BME280;45961;53.574;55.878;2023-04-21T02:21:49;100124.00;;;5.62;50.75
60089;BME280;45961;53.574;55.878;2023-04-21T02:22:50;100124.22;;;5.70;50.58
60089;BME280;45961;53.574;55.878;2023-04-21T02:23:51;100125.06;;;5.69;50.67
60089;BME280;45961;53.574;55.878;2023-04-21T02:24:52;100126.53;;;5.59;51.17
60089;BME280;45961;53.574;55.878;2023-04-21T02:25:53;100127.28;;;5.57;51.60
60089;BME280;45961;53.574;55.878;2023-04-21T02:26:54;100124.06;;;5.64;51.40
60089;BME280;45961;53.574;55.878;2023-04-21T02:27:57;100120.97;;;5.76;50.94
60089;BME280;45961;53.574;55.878;2023-04-21T02:29:00;100125.25;;;5.77;51.04
60089;BME280;45961;53.574;55.878;2023-04-21T02:30:02;100122.72;;;5.78;51.17
60089;BME280;45961;53.574;55.878;2023-04-21T02:31:04;100105.47;;;5.73;50.59
60089;BME280;45961;53.574;55.878;2023-04-21T02:32:08;100120.09;;;5.75;50.97
60089;BME280;45961;53.574;55.878;2023-04-21T02:33:09;100128.88;;;5.83;51.32
60089;BME280;45961;53.574;55.878;2023-04-21T02:34:12;100126.97;;;5.76;51.44
60089;BME280;45961;53.574;55.878;2023-04-21T02:35:13;100117.69;;;5.81;51.55
60089;BME280;45961;53.574;55.878;2023-04-21T02:36:14;100128.19;;;5.90;51.54
60089;BME280;45961;53.574;55.878;2023-04-21T02:37:15;100130.03;;;5.94;51.46
60089;BME280;45961;53.574;55.878;2023-04-21T02:38:16;100133.50;;;5.95;51.50
60089;BME280;45961;53.574;55.878;2023-04-21T02:39:17;100122.47;;;5.99;51.47
60089;BME280;45961;53.574;55.878;2023-04-21T02:40:18;100128.06;;;6.17;50.89
60089;BME280;45961;53.574;55.878;2023-04-21T02:41:19;100130.59;;;6.16;51.46
60089;BME280;45961;53.574;55.878;2023-04-21T02:42:20;100128.06;;;6.17;51.26
60089;BME280;45961;53.574;55.878;2023-04-21T02:43:22;100127.41;;;6.26;51.09
60089;BME280;45961;53.574;55.878;2023-04-21T02:44:23;100124.09;;;6.30;50.87
60089;BME280;45961;53.574;55.878;2023-04-21T02:45:24;100125.84;;;6.31;51.24
60089;BME280;45961;53.574;55.878;2023-04-21T02:46:25;100129.53;;;6.42;50.97
60089;BME280;45961;53.574;55.878;2023-04-21T02:47:26;100132.09;;;6.42;50.91
60089;BME280;45961;53.574;55.878;2023-04-21T02:48:27;100131.34;;;6.47;50.77
60089;BME280;45961;53.574;55.878;2023-04-21T02:49:29;100109.63;;;6.34;50.57
60089;BME280;45961;53.574;55.878;2023-04-21T02:50:31;100137.50;;;6.52;50.44
60089;BME280;45961;53.574;55.878;2023-04-21T02:51:32;100133.44;;;6.63;50.54
60089;BME280;45961;53.574;55.878;2023-04-21T02:52:36;100119.97;;;6.72;50.19
60089;BME280;45961;53.574;55.878;2023-04-21T02:53:38;100123.63;;;6.83;50.08
60089;BME280;45961;53.574;55.878;2023-04-21T02:54:40;100131.38;;;6.84;50.19
60089;BME280;45961;53.574;55.878;2023-04-21T02:55:41;100121.28;;;6.92;50.10
60089;BME280;45961;53.574;55.878;2023-04-21T02:56:42;100127.22;;;6.91;49.79
60089;BME280;45961;53.574;55.878;2023-04-21T02:57:43;100116.41;;;7.06;49.70
60089;BME280;45961;53.574;55.878;2023-04-21T02:58:44;100125.34;;;7.22;49.35
60089;BME280;45961;53.574;55.878;2023-04-21T02:59:45;100117.53;;;7.18;48.88
60089;BME280;45961;53.574;55.878;2023-04-21T03:00:46;100126.25;;;7.24;48.91
60089;BME280;45961;53.574;55.878;2023-04-21T03:01:48;100120.28;;;7.26;48.92
60089;BME280;45961;53.574;55.878;2023-04-21T03:02:49;100117.88;;;7.35;49.11
60089;BME280;45961;53.574;55.878;2023-04-21T03:03:50;100118.88;;;7.40;48.75
60089;BME280;45961;53.574;55.878;2023-04-21T03:04:51;100109.50;;;7.46;48.50
60089;BME280;45961;53.574;55.878;2023-04-21T03:06:00;100118.16;;;7.49;48.92
60089;BME280;45961;53.574;55.878;2023-04-21T03:07:01;100115.69;;;7.54;48.45
60089;BME280;45961;53.574;55.878;2023-04-21T03:08:02;100119.28;;;7.63;48.34
60089;BME280;45961;53.574;55.878;2023-04-21T03:09:03;100116.41;;;7.47;49.03
60089;BME280;45961;53.574;55.878;2023-04-21T03:10:05;100114.91;;;7.58;48.92
60089;BME280;45961;53.574;55.878;2023-04-21T03:11:06;100120.97;;;7.60;48.35
60089;BME280;45961;53.574;55.878;2023-04-21T03:12:07;100115.75;;;7.57;48.45
60089;BME280;45961;53.574;55.878;2023-04-21T03:13:10;100117.53;;;7.61;48.74
60089;BME280;45961;53.574;55.878;2023-04-21T03:14:11;100118.44;;;7.63;48.53
60089;BME280;45961;53.574;55.878;2023-04-21T03:15:12;100115.06;;;7.67;48.75
60089;BME280;45961;53.574;55.878;2023-04-21T03:16:14;100118.72;;;7.77;48.27
60089;BME280;45961;53.574;55.878;2023-04-21T03:17:18;100122.16;;;7.77;48.35
60089;BME280;45961;53.574;55.878;2023-04-21T03:18:19;100111.00;;;7.78;48.54
60089;BME280;45961;53.574;55.878;2023-04-21T03:19:20;100110.91;;;7.72;49.06
60089;BME280;45961;53.574;55.878;2023-04-21T03:20:21;100123.03;;;7.79;48.99
60089;BME280;45961;53.574;55.878;2023-04-21T03:21:22;100118.72;;;7.78;49.43
60089;BME280;45961;53.574;55.878;2023-04-21T03:22:23;100115.91;;;7.66;49.73
60089;BME280;45961;53.574;55.878;2023-04-21T03:23:24;100119.44;;;7.70;49.96
60089;BME280;45961;53.574;55.878;2023-04-21T03:24:25;100112.63;;;7.73;50.08
60089;BME280;45961;53.574;55.878;2023-04-21T03:25:25;100107.41;;;7.70;50.06
60089;BME280;45961;53.574;55.878;2023-04-21T03:26:30;100115.38;;;7.82;50.24
60089;BME280;45961;53.574;55.878;2023-04-21T03:27:32;100111.28;;;7.94;50.03
60089;BME280;45961;53.574;55.878;2023-04-21T03:28:33;100111.28;;;7.94;50.33
60089;BME280;45961;53.574;55.878;2023-04-21T03:29:36;100108.84;;;8.03;50.40
60089;BME280;45961;53.574;55.878;2023-04-21T03:30:37;100111.50;;;8.06;50.20
60089;BME280;45961;53.574;55.878;2023-04-21T03:31:38;100109.06;;;8.13;50.36
60089;BME280;45961;53.574;55.878;2023-04-21T03:32:39;100109.84;;;8.11;50.61
60089;BME280;45961;53.574;55.878;2023-04-21T03:33:40;100109.94;;;8.15;50.56
60089;BME280;45961;53.574;55.878;2023-04-21T03:34:41;100115.06;;;8.12;50.95
60089;BME280;45961;53.574;55.878;2023-04-21T03:35:43;100118.59;;;8.19;50.87
60089;BME280;45961;53.574;55.878;2023-04-21T03:36:44;100116.06;;;8.21;50.94
60089;BME280;45961;53.574;55.878;2023-04-21T03:37:45;100119.63;;;8.30;50.68
60089;BME280;45961;53.574;55.878;2023-04-21T03:38:46;100119.75;;;8.36;51.32
60089;BME280;45961;53.574;55.878;2023-04-21T03:39:47;100119.00;;;8.40;51.47
60089;BME280;45961;53.574;55.878;2023-04-21T03:40:49;100116.63;;;8.56;51.06
60089;BME280;45961;53.574;55.878;2023-04-21T03:41:50;100116.63;;;8.54;51.34
60089;BME280;45961;53.574;55.878;2023-04-21T03:42:51;100112.31;;;8.55;51.51
60089;BME280;45961;53.574;55.878;2023-04-21T03:43:52;100115.81;;;8.58;51.70
60089;BME280;45961;53.574;55.878;2023-04-21T03:44:54;100120.19;;;8.62;51.58
60089;BME280;45961;53.574;55.878;2023-04-21T03:45:55;100115.03;;;8.64;51.54
60089;BME280;45961;53.574;55.878;2023-04-21T03:46:56;100117.91;;;8.82;51.26
60089;BME280;45961;53.574;55.878;2023-04-21T03:47:57;100109.34;;;8.86;51.20
60089;BME280;45961;53.574;55.878;2023-04-21T03:48:58;100112.91;;;8.96;50.95
60089;BME280;45961;53.574;55.878;2023-04-21T03:49:59;100111.25;;;9.00;50.88
60089;BME280;45961;53.574;55.878;2023-04-21T03:51:00;100110.56;;;9.11;50.77
60089;BME280;45961;53.574;55.878;2023-04-21T03:52:02;100113.25;;;9.19;50.16
60089;BME280;45961;53.574;55.878;2023-04-21T03:53:02;100111.56;;;9.24;50.08
60089;BME280;45961;53.574;55.878;2023-04-21T03:54:03;100103.09;;;9.36;49.75
60089;BME280;45961;53.574;55.878;2023-04-21T03:55:05;100105.75;;;9.40;49.88
60089;BME280;45961;53.574;55.878;2023-04-21T03:56:10;100099.81;;;9.48;49.51
60089;BME280;45961;53.574;55.878;2023-04-21T03:57:12;100112.00;;;9.58;49.49
60089;BME280;45961;53.574;55.878;2023-04-21T03:58:14;100108.63;;;9.65;49.52
60089;BME280;45961;53.574;55.878;2023-04-21T03:59:15;100104.41;;;9.73;49.10
60089;BME280;45961;53.574;55.878;2023-04-21T04:00:36;100099.34;;;9.84;48.95
60089;BME280;45961;53.574;55.878;2023-04-21T04:01:37;100106.25;;;9.88;49.12
60089;BME280;45961;53.574;55.878;2023-04-21T04:02:39;100088.16;;;9.85;48.90
60089;BME280;45961;53.574;55.878;2023-04-21T04:03:40;100096.97;;;10.08;48.94
60089;BME280;45961;53.574;55.878;2023-04-21T04:04:41;100091.03;;;10.20;48.61
60089;BME280;45961;53.574;55.878;2023-04-21T04:05:41;100093.75;;;10.32;48.47
60089;BME280;45961;53.574;55.878;2023-04-21T04:06:42;100103.31;;;10.38;48.26
60089;BME280;45961;53.574;55.878;2023-04-21T04:07:44;100106.75;;;10.38;47.65
60089;BME280;45961;53.574;55.878;2023-04-21T04:08:45;100102.47;;;10.44;47.47
60089;BME280;45961;53.574;55.878;2023-04-21T04:09:46;100092.16;;;10.47;46.93
60089;BME280;45961;53.574;55.878;2023-04-21T04:10:47;100096.53;;;10.54;46.55
60089;BME280;45961;53.574;55.878;2023-04-21T04:11:48;100096.59;;;10.63;46.52
60089;BME280;45961;53.574;55.878;2023-04-21T04:12:49;100094.06;;;10.71;46.29
60089;BME280;45961;53.574;55.878;2023-04-21T04:13:49;100095.88;;;10.85;46.23
60089;BME280;45961;53.574;55.878;2023-04-21T04:14:50;100094.19;;;10.95;45.50
60089;BME280;45961;53.574;55.878;2023-04-21T04:15:52;100083.03;;;11.07;45.86
60089;BME280;45961;53.574;55.878;2023-04-21T04:16:53;100096.06;;;11.19;45.76
60089;BME280;45961;53.574;55.878;2023-04-21T04:17:54;100095.22;;;11.28;45.61
60089;BME280;45961;53.574;55.878;2023-04-21T04:18:55;100096.09;;;11.31;45.24
60089;BME280;45961;53.574;55.878;2023-04-21T04:19:56;100097.00;;;11.40;44.84
60089;BME280;45961;53.574;55.878;2023-04-21T04:20:57;100097.88;;;11.48;44.50
60089;BME280;45961;53.574;55.878;2023-04-21T04:21:59;100103.09;;;11.60;44.21
60089;BME280;45961;53.574;55.878;2023-04-21T04:23:00;100098.78;;;11.65;43.61
60089;BME280;45961;53.574;55.878;2023-04-21T04:24:01;100094.50;;;11.76;43.42
60089;BME280;45961;53.574;55.878;2023-04-21T04:25:02;100104.03;;;11.82;43.07
60089;BME280;45961;53.574;55.878;2023-04-21T04:26:04;100094.59;;;11.90;43.20
60089;BME280;45961;53.574;55.878;2023-04-21T04:27:05;100098.91;;;12.02;43.21
60089;BME280;45961;53.574;55.878;2023-04-21T04:28:06;100098.03;;;12.00;43.13
60089;BME280;45961;53.574;55.878;2023-04-21T04:29:07;100096.31;;;12.05;42.89
60089;BME280;45961;53.574;55.878;2023-04-21T04:30:11;100092.88;;;12.03;42.71
60089;BME280;45961;53.574;55.878;2023-04-21T04:31:12;100090.28;;;12.23;42.90
60089;BME280;45961;53.574;55.878;2023-04-21T04:32:13;100095.47;;;12.32;42.94
60089;BME280;45961;53.574;55.878;2023-04-21T04:33:15;100093.72;;;12.20;42.12
60089;BME280;45961;53.574;55.878;2023-04-21T04:34:16;100092.00;;;12.25;42.37
60089;BME280;45961;53.574;55.878;2023-04-21T04:35:17;100093.75;;;12.39;42.16
60089;BME280;45961;53.574;55.878;2023-04-21T04:36:19;100084.22;;;12.33;42.23
60089;BME280;45961;53.574;55.878;2023-04-21T04:37:20;100089.41;;;12.48;42.09
60089;BME280;45961;53.574;55.878;2023-04-21T04:38:22;100068.63;;;12.44;41.54
60089;BME280;45961;53.574;55.878;2023-04-21T04:39:22;100090.25;;;12.66;41.21
60089;BME280;45961;53.574;55.878;2023-04-21T04:40:25;100091.97;;;12.76;41.02
60089;BME280;45961;53.574;55.878;2023-04-21T04:41:28;100091.09;;;12.66;40.15
60089;BME280;45961;53.574;55.878;2023-04-21T04:42:30;100086.78;;;12.67;40.57
60089;BME280;45961;53.574;55.878;2023-04-21T04:43:32;100089.38;;;12.71;40.88
60089;BME280;45961;53.574;55.878;2023-04-21T04:44:33;100091.97;;;12.79;40.68
60089;BME280;45961;53.574;55.878;2023-04-21T04:45:35;100070.31;;;12.77;40.83
60089;BME280;45961;53.574;55.878;2023-04-21T04:46:37;100085.00;;;12.93;40.85
60089;BME280;45961;53.574;55.878;2023-04-21T04:47:39;100084.97;;;12.98;40.72
60089;BME280;45961;53.574;55.878;2023-04-21T04:48:40;100089.31;;;12.97;40.36
60089;BME280;45961;53.574;55.878;2023-04-21T04:49:41;100085.00;;;12.93;40.60
60089;BME280;45961;53.574;55.878;2023-04-21T04:50:42;100085.88;;;12.95;41.13
60089;BME280;45961;53.574;55.878;2023-04-21T04:51:43;100085.81;;;13.06;40.83
60089;BME280;45961;53.574;55.878;2023-04-21T04:52:44;100078.88;;;13.11;40.65
60089;BME280;45961;53.574;55.878;2023-04-21T04:53:46;100080.56;;;13.18;40.44
60089;BME280;45961;53.574;55.878;2023-04-21T04:54:47;100087.53;;;13.12;40.23
60089;BME280;45961;53.574;55.878;2023-04-21T04:55:48;100081.50;;;13.05;40.35
60089;BME280;45961;53.574;55.878;2023-04-21T04:56:49;100084.88;;;13.22;40.50
60089;BME280;45961;53.574;55.878;2023-04-21T04:57:50;100084.91;;;13.28;40.63
60089;BME280;45961;53.574;55.878;2023-04-21T04:58:51;100084.88;;;13.30;40.19
60089;BME280;45961;53.574;55.878;2023-04-21T04:59:55;100079.69;;;13.33;40.32
60089;BME280;45961;53.574;55.878;2023-04-21T05:00:56;100083.06;;;13.49;40.28
60089;BME280;45961;53.574;55.878;2023-04-21T05:01:57;100085.63;;;13.58;40.11
60089;BME280;45961;53.574;55.878;2023-04-21T05:02:58;100078.69;;;13.60;39.73
60089;BME280;45961;53.574;55.878;2023-04-21T05:03:59;100081.34;;;13.49;39.53
60089;BME280;45961;53.574;55.878;2023-04-21T05:05:00;100074.34;;;13.61;39.52
60089;BME280;45961;53.574;55.878;2023-04-21T05:06:01;100070.91;;;13.54;39.46
60089;BME280;45961;53.574;55.878;2023-04-21T05:07:02;100086.44;;;13.66;39.47
60089;BME280;45961;53.574;55.878;2023-04-21T05:08:03;100079.41;;;13.82;39.74
60089;BME280;45961;53.574;55.878;2023-04-21T05:09:04;100074.16;;;13.87;39.45
60089;BME280;45961;53.574;55.878;2023-04-21T05:10:08;100080.22;;;13.92;39.26
60089;BME280;45961;53.574;55.878;2023-04-21T05:11:09;100071.53;;;13.93;39.16
60089;BME280;45961;53.574;55.878;2023-04-21T05:12:10;100072.41;;;13.93;39.21
60089;BME280;45961;53.574;55.878;2023-04-21T05:13:11;100072.47;;;13.87;39.28
60089;BME280;45961;53.574;55.878;2023-04-21T05:14:12;100075.03;;;13.92;39.50
60089;BME280;45961;53.574;55.878;2023-04-21T05:15:13;100080.19;;;13.99;39.18
60089;BME280;45961;53.574;55.878;2023-04-21T05:16:14;100073.94;;;14.19;39.29
60089;BME280;45961;53.574;55.878;2023-04-21T05:17:14;100080.94;;;14.15;39.32
60089;BME280;45961;53.574;55.878;2023-04-21T05:18:15;100079.09;;;14.28;39.18
60089;BME280;45961;53.574;55.878;2023-04-21T05:19:16;100057.31;;;14.37;39.10
60089;BME280;45961;53.574;55.878;2023-04-21T05:20:18;100065.03;;;14.52;38.98